Time;durP1;ratioP1;P1;durP2;ratioP2;P2;SDS_P1;SDS_P2;PMS_P1;PMS_P2;Temp;Humidity;BMP_temperature;BMP_pressure;BME280_temperature;BME280_humidity;BME280_pressure;Samples;Min_cycle;Max_cycle;Signal;HPM_P1;HPM_P2
2024/04/06 00:00:55;;;;;;;0.37;0.30;;;13.40;99.90;;;;;;5077580;28;20206;-69
2024/04/06 00:03:21;;;;;;;0.27;0.27;;;13.40;99.90;;;;;;5069565;28;20208;-69
2024/04/06 00:05:46;;;;;;;0.20;0.20;;;13.40;99.90;;;;;;5076465;28;20649;-69
2024/04/06 00:08:12;;;;;;;0.40;0.30;;;13.30;99.90;;;;;;5077116;28;20293;-69
2024/04/06 00:10:37;;;;;;;0.30;0.30;;;13.40;99.90;;;;;;5067641;28;20214;-68
2024/04/06 00:13:03;;;;;;;0.40;0.20;;;13.30;99.90;;;;;;5069566;28;20233;-68
2024/04/06 00:15:29;;;;;;;0.93;0.43;;;13.30;99.90;;;;;;5070332;28;20243;-68
2024/04/06 00:17:54;;;;;;;0.23;0.20;;;13.30;99.90;;;;;;5077016;28;20198;-68
2024/04/06 00:20:20;;;;;;;0.20;0.20;;;13.20;99.90;;;;;;5069382;28;20182;-70
2024/04/06 00:22:45;;;;;;;0.20;0.20;;;13.20;99.90;;;;;;5067949;28;20277;-68
2024/04/06 00:25:11;;;;;;;0.20;0.20;;;13.10;99.90;;;;;;5069613;28;20189;-68
2024/04/06 00:27:36;;;;;;;0.67;0.30;;;13.10;99.90;;;;;;5069109;28;20204;-68
2024/04/06 00:30:02;;;;;;;0.20;0.20;;;13.00;99.90;;;;;;5069128;28;20646;-70
2024/04/06 00:32:28;;;;;;;0.33;0.33;;;13.00;99.90;;;;;;5069342;28;20662;-68
2024/04/06 00:34:53;;;;;;;0.40;0.30;;;12.80;99.90;;;;;;5068413;28;20224;-68
2024/04/06 00:37:19;;;;;;;0.47;0.47;;;12.80;99.90;;;;;;5069158;28;20206;-68
2024/04/06 00:39:44;;;;;;;0.20;0.20;;;12.70;99.90;;;;;;5068926;28;20273;-69
2024/04/06 00:42:10;;;;;;;0.20;0.20;;;12.50;99.90;;;;;;5069055;28;20233;-68
2024/04/06 00:44:36;;;;;;;0.20;0.20;;;12.40;99.90;;;;;;5068998;28;20202;-68
2024/04/06 00:47:02;;;;;;;0.10;0.10;;;12.30;99.90;;;;;;5069224;28;20203;-67
2024/04/06 00:49:32;;;;;;;0.33;0.30;;;12.30;99.90;;;;;;5067064;28;20190;-68
2024/04/06 00:51:57;;;;;;;0.10;0.10;;;12.40;99.90;;;;;;5069123;28;20190;-68
2024/04/06 00:54:24;;;;;;;0.30;0.30;;;12.20;99.90;;;;;;5069294;28;20202;-68
2024/04/06 00:56:50;;;;;;;0.63;0.40;;;12.20;99.90;;;;;;5069418;28;20265;-67
2024/04/06 00:59:17;;;;;;;0.87;0.60;;;12.20;99.90;;;;;;5068755;28;20194;-68
2024/04/06 01:01:43;;;;;;;0.67;0.20;;;12.10;99.90;;;;;;5069110;28;20231;-69
2024/04/06 01:04:09;;;;;;;0.50;0.30;;;12.10;99.90;;;;;;5069238;28;20186;-70
2024/04/06 01:06:34;;;;;;;0.57;0.50;;;12.10;99.90;;;;;;5068539;28;20615;-68
2024/04/06 01:09:00;;;;;;;0.40;0.30;;;12.10;99.90;;;;;;5068654;28;20627;-68
2024/04/06 01:11:26;;;;;;;0.73;0.40;;;12.10;99.90;;;;;;5069591;28;20218;-71
2024/04/06 01:13:51;;;;;;;0.20;0.20;;;12.10;99.90;;;;;;5069204;28;20206;-69
2024/04/06 01:16:17;;;;;;;0.20;0.20;;;12.20;99.90;;;;;;5069273;28;20211;-69
2024/04/06 01:18:42;;;;;;;0.43;0.30;;;12.30;99.90;;;;;;5069223;28;20673;-68
2024/04/06 01:21:08;;;;;;;0.37;0.30;;;12.30;99.90;;;;;;5071764;28;20222;-68
2024/04/06 01:23:35;;;;;;;0.30;0.30;;;12.30;99.90;;;;;;5072487;28;20197;-68
2024/04/06 01:26:01;;;;;;;0.20;0.20;;;12.40;99.90;;;;;;5072524;28;20191;-68
2024/04/06 01:28:27;;;;;;;0.30;0.30;;;12.40;99.90;;;;;;5072518;28;20230;-68
2024/04/06 01:30:53;;;;;;;0.30;0.20;;;12.40;99.90;;;;;;5072203;28;20692;-69
2024/04/06 01:33:19;;;;;;;0.20;0.20;;;12.40;99.90;;;;;;5072767;28;20270;-68
2024/04/06 01:35:44;;;;;;;0.60;0.40;;;12.50;99.90;;;;;;5072340;28;20220;-68
2024/04/06 01:38:10;;;;;;;0.10;0.10;;;12.50;99.90;;;;;;5072410;28;20216;-68
2024/04/06 01:40:36;;;;;;;0.30;0.30;;;12.50;99.90;;;;;;5071739;28;20699;-68
2024/04/06 01:43:01;;;;;;;0.13;0.13;;;12.40;99.90;;;;;;5080374;28;20194;-70
2024/04/06 01:45:27;;;;;;;0.47;0.40;;;12.50;99.90;;;;;;5071879;28;20189;-68
2024/04/06 01:47:53;;;;;;;0.23;0.23;;;12.50;99.90;;;;;;5072090;28;20205;-68
2024/04/06 01:50:18;;;;;;;0.40;0.30;;;12.50;99.90;;;;;;5072026;28;20270;-67
2024/04/06 01:52:44;;;;;;;0.57;0.37;;;12.50;99.90;;;;;;5072004;28;20547;-68
2024/04/06 01:55:09;;;;;;;0.50;0.50;;;12.50;99.90;;;;;;5072032;28;20678;-68
2024/04/06 01:57:35;;;;;;;0.20;0.20;;;12.50;99.90;;;;;;5072068;28;20934;-68
2024/04/06 02:00:01;;;;;;;0.27;0.20;;;12.50;99.90;;;;;;5071932;28;20183;-68
2024/04/06 02:02:26;;;;;;;0.43;0.40;;;12.40;99.90;;;;;;5072092;28;20555;-68
2024/04/06 02:04:52;;;;;;;0.50;0.30;;;12.50;99.90;;;;;;5071914;28;20189;-69
2024/04/06 02:07:18;;;;;;;0.27;0.27;;;12.40;99.90;;;;;;5070108;28;20271;-68
2024/04/06 02:09:43;;;;;;;0.80;0.57;;;12.40;99.90;;;;;;5071253;28;20604;-68
2024/04/06 02:12:10;;;;;;;0.30;0.20;;;12.30;99.90;;;;;;5071968;28;20458;-68
2024/04/06 02:14:35;;;;;;;0.20;0.20;;;12.30;99.90;;;;;;5071441;28;20693;-68
2024/04/06 02:17:03;;;;;;;0.60;0.40;;;12.30;99.90;;;;;;5071786;28;20225;-68
2024/04/06 02:19:29;;;;;;;0.20;0.20;;;12.30;99.90;;;;;;5070889;28;20194;-68
2024/04/06 02:21:54;;;;;;;0.50;0.50;;;12.20;99.90;;;;;;5071444;28;20671;-68
2024/04/06 02:24:20;;;;;;;0.60;0.60;;;12.20;99.90;;;;;;5079913;28;20186;-68
2024/04/06 02:26:46;;;;;;;0.30;0.20;;;12.20;99.90;;;;;;5071270;28;20186;-68
2024/04/06 02:29:11;;;;;;;0.20;0.20;;;12.10;99.90;;;;;;5071016;28;20205;-68
2024/04/06 02:31:37;;;;;;;0.20;0.20;;;12.00;99.90;;;;;;5070867;28;20432;-68
2024/04/06 02:34:03;;;;;;;0.40;0.40;;;12.00;99.90;;;;;;5076339;28;20204;-67
2024/04/06 02:36:28;;;;;;;0.80;0.50;;;12.00;99.90;;;;;;5074235;28;20673;-69
2024/04/06 02:38:54;;;;;;;0.40;0.27;;;11.80;99.90;;;;;;5071139;28;20202;-68
2024/04/06 02:41:19;;;;;;;0.40;0.30;;;11.80;99.90;;;;;;5070479;28;20596;-69
2024/04/06 02:43:45;;;;;;;1.43;1.00;;;11.70;99.90;;;;;;5071027;28;20919;-67
2024/04/06 02:46:10;;;;;;;0.30;0.20;;;11.60;99.90;;;;;;5071598;28;20699;-69
2024/04/06 02:48:36;;;;;;;0.33;0.20;;;11.50;99.90;;;;;;5079476;28;20206;-68
2024/04/06 02:51:02;;;;;;;0.43;0.30;;;11.40;99.90;;;;;;5070587;28;20228;-68
2024/04/06 02:53:28;;;;;;;0.10;0.10;;;11.30;99.90;;;;;;5070595;28;20182;-68
2024/04/06 02:55:55;;;;;;;0.20;0.20;;;11.20;99.90;;;;;;5075007;28;20216;-68
2024/04/06 02:58:22;;;;;;;0.20;0.20;;;11.00;99.90;;;;;;5074915;28;20199;-68
2024/04/06 03:00:48;;;;;;;0.10;0.10;;;11.00;99.90;;;;;;5071107;28;20186;-68
2024/04/06 03:03:15;;;;;;;0.37;0.30;;;11.00;99.90;;;;;;5070690;28;20309;-68
2024/04/06 03:05:40;;;;;;;0.10;0.10;;;11.00;99.90;;;;;;5070736;28;20190;-68
2024/04/06 03:08:06;;;;;;;0.53;0.37;;;10.90;99.90;;;;;;5070421;28;20210;-68
2024/04/06 03:10:32;;;;;;;0.37;0.30;;;10.80;99.90;;;;;;5070017;28;20188;-68
2024/04/06 03:12:59;;;;;;;0.20;0.20;;;10.80;99.90;;;;;;5068912;28;20182;-68
2024/04/06 03:15:25;;;;;;;0.47;0.40;;;10.60;99.90;;;;;;5070479;28;20214;-68
2024/04/06 03:17:51;;;;;;;0.20;0.20;;;10.50;99.90;;;;;;5070238;28;20347;-69
2024/04/06 03:20:16;;;;;;;0.10;0.10;;;10.50;99.90;;;;;;5069966;28;20269;-69
2024/04/06 03:22:57;;;;;;;0.40;0.20;;;10.50;99.90;;;;;;5070334;28;20252;-68
2024/04/06 03:25:23;;;;;;;0.53;0.30;;;10.50;99.90;;;;;;5070062;28;20324;-68
2024/04/06 03:27:48;;;;;;;0.23;0.23;;;10.40;99.90;;;;;;5070354;28;20300;-68
2024/04/06 03:30:14;;;;;;;0.30;0.30;;;10.40;99.90;;;;;;5069848;28;20213;-68
2024/04/06 03:32:39;;;;;;;0.20;0.20;;;10.30;99.90;;;;;;5069986;28;20221;-68
2024/04/06 03:35:05;;;;;;;1.30;0.60;;;10.20;99.90;;;;;;5070359;28;20206;-68
2024/04/06 03:37:31;;;;;;;0.30;0.30;;;10.30;99.90;;;;;;5069627;28;20214;-67
2024/04/06 03:39:56;;;;;;;0.60;0.50;;;10.30;99.90;;;;;;5070050;28;20195;-68
2024/04/06 03:42:25;;;;;;;0.20;0.20;;;10.30;99.90;;;;;;5069462;28;20217;-68
2024/04/06 03:44:50;;;;;;;0.13;0.10;;;10.10;99.90;;;;;;5070293;28;20236;-68
2024/04/06 03:47:16;;;;;;;0.20;0.20;;;10.10;99.90;;;;;;5070086;28;20206;-69
2024/04/06 03:49:42;;;;;;;0.10;0.10;;;10.10;99.90;;;;;;5071366;28;20604;-68
2024/04/06 03:52:08;;;;;;;0.23;0.23;;;10.00;99.90;;;;;;5076429;28;20187;-68
2024/04/06 03:54:34;;;;;;;0.80;0.47;;;9.90;99.90;;;;;;5070346;28;20300;-68
2024/04/06 03:56:59;;;;;;;0.50;0.50;;;9.80;99.90;;;;;;5070623;28;20452;-68
2024/04/06 03:59:25;;;;;;;2.23;1.03;;;9.70;99.90;;;;;;5069842;28;20218;-68
2024/04/06 04:01:51;;;;;;;0.20;0.20;;;9.70;99.90;;;;;;5070159;28;20265;-68
2024/04/06 04:04:16;;;;;;;0.47;0.47;;;9.70;99.90;;;;;;5069847;28;20190;-68
2024/04/06 04:06:42;;;;;;;1.30;0.70;;;9.70;99.90;;;;;;5069418;28;20284;-70
2024/04/06 04:09:08;;;;;;;0.37;0.37;;;9.70;99.90;;;;;;5067881;28;20236;-68
2024/04/06 04:11:33;;;;;;;0.63;0.40;;;9.60;99.90;;;;;;5069945;28;20594;-68
2024/04/06 04:13:59;;;;;;;0.20;0.20;;;9.70;99.90;;;;;;5070000;28;20563;-69
2024/04/06 04:16:24;;;;;;;0.20;0.20;;;9.80;99.90;;;;;;5069922;28;20190;-68
2024/04/06 04:18:50;;;;;;;0.63;0.40;;;9.80;99.90;;;;;;5069721;28;20206;-68
2024/04/06 04:21:15;;;;;;;0.67;0.33;;;9.70;99.90;;;;;;5068136;28;20721;-69
2024/04/06 04:23:43;;;;;;;0.30;0.30;;;9.80;99.90;;;;;;5069200;28;20178;-68
2024/04/06 04:26:09;;;;;;;2.17;0.53;;;9.80;99.90;;;;;;5069554;28;20615;-69
2024/04/06 04:28:34;;;;;;;0.40;0.20;;;9.80;99.90;;;;;;5069378;28;20250;-70
2024/04/06 04:31:15;;;;;;;1.40;0.30;;;10.00;99.90;;;;;;5069107;28;20290;-68
2024/04/06 04:33:41;;;;;;;0.30;0.20;;;9.90;99.90;;;;;;5069433;28;20673;-67
2024/04/06 04:36:08;;;;;;;0.20;0.20;;;9.90;99.90;;;;;;5069163;28;20206;-68
2024/04/06 04:38:34;;;;;;;0.23;0.20;;;9.90;99.90;;;;;;5069031;28;20198;-68
2024/04/06 04:41:00;;;;;;;0.30;0.30;;;9.90;99.90;;;;;;5069152;28;20185;-67
2024/04/06 04:43:25;;;;;;;0.60;0.60;;;10.00;99.90;;;;;;5069324;28;20579;-69
2024/04/06 04:45:51;;;;;;;0.30;0.30;;;10.00;99.90;;;;;;5069513;28;20190;-68
2024/04/06 04:48:16;;;;;;;0.20;0.20;;;10.00;99.90;;;;;;5069268;28;20660;-69
2024/04/06 04:50:42;;;;;;;0.90;0.30;;;10.00;99.90;;;;;;5068736;28;20691;-68
2024/04/06 04:53:09;;;;;;;0.20;0.20;;;10.00;99.90;;;;;;5069872;28;20244;-68
2024/04/06 04:55:36;;;;;;;0.30;0.30;;;10.10;99.90;;;;;;5073637;28;20214;-68
2024/04/06 04:58:01;;;;;;;0.50;0.30;;;10.10;99.90;;;;;;5073034;28;20206;-67
2024/04/06 05:00:27;;;;;;;1.03;0.30;;;10.10;99.90;;;;;;5072374;28;20233;-69
2024/04/06 05:02:53;;;;;;;0.50;0.50;;;10.10;99.90;;;;;;5071568;28;20178;-68
2024/04/06 05:05:18;;;;;;;0.93;0.57;;;10.10;99.90;;;;;;5072482;28;20719;-68
2024/04/06 05:07:44;;;;;;;0.37;0.30;;;10.20;99.90;;;;;;5071647;28;20206;-68
2024/04/06 05:10:09;;;;;;;0.30;0.30;;;10.20;99.90;;;;;;5071805;28;20754;-70
2024/04/06 05:12:35;;;;;;;0.47;0.47;;;10.20;99.90;;;;;;5070749;28;20190;-69
2024/04/06 05:15:01;;;;;;;1.00;0.77;;;10.30;99.90;;;;;;5072195;28;20624;-70
2024/04/06 05:17:27;;;;;;;1.40;0.87;;;10.30;99.90;;;;;;5071959;28;20745;-68
2024/04/06 05:19:52;;;;;;;0.50;0.50;;;10.30;99.90;;;;;;5074887;28;20186;-68
2024/04/06 05:22:18;;;;;;;1.97;0.50;;;10.30;99.90;;;;;;5076988;28;20190;-68
2024/04/06 05:24:44;;;;;;;0.40;0.40;;;10.40;99.90;;;;;;5072210;28;20558;-69
2024/04/06 05:27:09;;;;;;;2.50;1.33;;;10.50;99.90;;;;;;5070982;28;20229;-69
2024/04/06 05:29:35;;;;;;;0.57;0.57;;;10.60;99.90;;;;;;5071477;28;20248;-68
2024/04/06 05:32:01;;;;;;;0.70;0.40;;;10.50;99.90;;;;;;5072317;28;20178;-68
2024/04/06 05:34:26;;;;;;;0.50;0.50;;;10.60;99.90;;;;;;5071926;28;20206;-69
2024/04/06 05:36:53;;;;;;;0.73;0.50;;;10.70;99.90;;;;;;5072199;28;20248;-68
2024/04/06 05:39:18;;;;;;;0.20;0.20;;;10.70;99.90;;;;;;5071705;28;20182;-68
2024/04/06 05:41:44;;;;;;;0.70;0.60;;;10.70;99.90;;;;;;5072109;28;20609;-68
2024/04/06 05:44:10;;;;;;;1.20;0.50;;;10.80;99.90;;;;;;5070878;28;20185;-70
2024/04/06 05:46:35;;;;;;;1.03;0.80;;;10.70;99.90;;;;;;5071282;28;20190;-68
2024/04/06 05:49:02;;;;;;;0.43;0.43;;;10.70;99.90;;;;;;5070952;28;20316;-68
2024/04/06 05:51:29;;;;;;;0.53;0.50;;;10.80;99.90;;;;;;5071685;28;20603;-68
2024/04/06 05:53:55;;;;;;;0.47;0.47;;;10.90;99.90;;;;;;5079938;28;20204;-68
2024/04/06 05:56:20;;;;;;;1.17;0.77;;;10.90;99.90;;;;;;5078948;28;20257;-68
2024/04/06 05:58:46;;;;;;;0.60;0.50;;;11.00;99.90;;;;;;5072350;28;20686;-68
2024/04/06 06:01:11;;;;;;;0.67;0.47;;;11.00;99.90;;;;;;5071276;28;20460;-69
2024/04/06 06:03:37;;;;;;;0.60;0.50;;;11.10;99.90;;;;;;5071969;28;20231;-69
2024/04/06 06:06:03;;;;;;;0.30;0.30;;;11.20;99.90;;;;;;5070880;28;20186;-68
2024/04/06 06:08:28;;;;;;;0.80;0.70;;;11.20;99.90;;;;;;5069702;28;20288;-69
2024/04/06 06:10:54;;;;;;;0.50;0.50;;;11.20;99.90;;;;;;5071388;28;20233;-69
2024/04/06 06:13:19;;;;;;;1.63;0.40;;;11.30;99.90;;;;;;5071732;28;20550;-68
2024/04/06 06:15:46;;;;;;;0.43;0.33;;;11.30;99.90;;;;;;5071690;28;20218;-69
2024/04/06 06:18:11;;;;;;;0.70;0.50;;;11.40;99.90;;;;;;5071449;28;20206;-68
2024/04/06 06:20:38;;;;;;;0.57;0.50;;;11.60;99.90;;;;;;5070724;28;20694;-69
2024/04/06 06:23:04;;;;;;;0.83;0.60;;;11.70;99.90;;;;;;5070887;28;20197;-69
2024/04/06 06:25:31;;;;;;;1.17;0.40;;;11.80;99.90;;;;;;5070912;28;20273;-68
2024/04/06 06:27:57;;;;;;;1.43;0.30;;;11.90;99.90;;;;;;5071057;28;20201;-68
2024/04/06 06:30:23;;;;;;;0.20;0.20;;;12.00;99.90;;;;;;5070312;28;20269;-68
2024/04/06 06:32:48;;;;;;;0.50;0.40;;;12.10;99.90;;;;;;5070397;28;20604;-67
2024/04/06 06:35:14;;;;;;;0.50;0.50;;;12.20;99.90;;;;;;5070569;28;20674;-66
2024/04/06 06:37:39;;;;;;;0.70;0.30;;;12.20;99.90;;;;;;5049847;28;20642;-66
2024/04/06 06:40:05;;;;;;;0.73;0.40;;;12.30;99.90;;;;;;5070259;28;20702;-68
2024/04/06 06:42:31;;;;;;;0.63;0.60;;;12.30;99.90;;;;;;5070371;28;20554;-67
2024/04/06 06:44:56;;;;;;;0.73;0.30;;;12.30;99.90;;;;;;5052552;28;20179;-67
2024/04/06 06:47:25;;;;;;;0.30;0.30;;;12.20;99.90;;;;;;5070093;28;20202;-67
2024/04/06 06:49:51;;;;;;;0.20;0.20;;;12.30;99.90;;;;;;5070043;28;20681;-69
2024/04/06 06:52:16;;;;;;;0.40;0.40;;;12.20;99.90;;;;;;5078795;28;20319;-69
2024/04/06 06:54:42;;;;;;;0.40;0.30;;;12.30;99.90;;;;;;5071862;28;20705;-69
2024/04/06 06:57:07;;;;;;;0.33;0.33;;;12.40;99.90;;;;;;5076782;28;20204;-66
2024/04/06 06:59:33;;;;;;;0.83;0.40;;;12.40;99.90;;;;;;5070469;28;20179;-67
2024/04/06 07:01:59;;;;;;;0.40;0.33;;;12.50;99.90;;;;;;5069331;28;20177;-67
2024/04/06 07:04:24;;;;;;;0.37;0.37;;;12.70;99.90;;;;;;5068873;28;20198;-67
2024/04/06 07:06:50;;;;;;;0.57;0.40;;;12.90;99.90;;;;;;5068291;28;20666;-67
2024/04/06 07:09:15;;;;;;;0.77;0.43;;;13.00;99.90;;;;;;5068665;28;20178;-67
2024/04/06 07:11:41;;;;;;;0.57;0.40;;;13.10;99.90;;;;;;5068370;28;20186;-67
2024/04/06 07:14:11;;;;;;;1.60;0.80;;;13.40;99.90;;;;;;5069560;28;20174;-67
2024/04/06 07:16:37;;;;;;;2.07;1.50;;;13.40;99.90;;;;;;5069279;28;20742;-67
2024/04/06 07:19:03;;;;;;;1.00;0.60;;;13.60;99.90;;;;;;5069251;28;20210;-66
2024/04/06 07:21:28;;;;;;;1.53;0.80;;;14.00;99.90;;;;;;5069455;28;20208;-67
2024/04/06 07:23:54;;;;;;;0.70;0.57;;;14.10;99.90;;;;;;5069187;28;20182;-67
2024/04/06 07:26:19;;;;;;;1.00;0.60;;;14.10;99.90;;;;;;5075051;28;20207;-67
2024/04/06 07:28:45;;;;;;;0.77;0.60;;;14.40;99.90;;;;;;5070495;28;20214;-66
2024/04/06 07:31:11;;;;;;;2.30;1.10;;;14.70;99.90;;;;;;5068905;28;20178;-67
2024/04/06 07:33:37;;;;;;;1.53;0.70;;;15.10;99.90;;;;;;5069135;28;20198;-66
2024/04/06 07:36:02;;;;;;;1.53;0.83;;;15.10;99.90;;;;;;5069165;28;20212;-67
2024/04/06 07:38:28;;;;;;;1.20;0.80;;;15.40;99.90;;;;;;5068937;28;20214;-67
2024/04/06 07:40:58;;;;;;;1.53;0.77;;;15.60;99.90;;;;;;5068646;28;20210;-67
2024/04/06 07:43:24;;;;;;;2.50;1.03;;;15.90;99.90;;;;;;5068953;28;20256;-67
2024/04/06 07:45:49;;;;;;;1.00;0.80;;;16.40;99.90;;;;;;5077243;28;20193;-67
2024/04/06 07:48:16;;;;;;;0.43;0.43;;;16.80;99.90;;;;;;5069027;28;20323;-66
2024/04/06 07:50:43;;;;;;;0.60;0.40;;;17.20;99.90;;;;;;5068553;28;20658;-66
2024/04/06 07:53:09;;;;;;;0.83;0.50;;;17.50;99.90;;;;;;5069034;28;20186;-66
2024/04/06 07:55:34;;;;;;;0.53;0.40;;;17.90;99.90;;;;;;5068664;28;20213;-66
2024/04/06 07:58:00;;;;;;;1.33;0.40;;;18.40;99.90;;;;;;5068876;28;20206;-67
2024/04/06 08:00:25;;;;;;;0.40;0.40;;;18.70;99.90;;;;;;5068816;28;20273;-67
2024/04/06 08:02:51;;;;;;;0.73;0.53;;;18.80;99.90;;;;;;5068862;28;20269;-66
2024/04/06 08:05:16;;;;;;;1.13;0.60;;;19.20;99.90;;;;;;5068963;28;20182;-66
2024/04/06 08:07:42;;;;;;;0.80;0.40;;;19.40;99.90;;;;;;5068335;28;20779;-66
2024/04/06 08:10:19;;;;;;;1.80;0.50;;;19.50;99.90;;;;;;5068548;28;20231;-66
2024/04/06 08:12:45;;;;;;;0.63;0.47;;;19.70;99.90;;;;;;5068790;28;20190;-66
2024/04/06 08:15:12;;;;;;;0.40;0.30;;;20.00;99.90;;;;;;5069872;28;20637;-66
2024/04/06 08:17:45;;;;;;;0.60;0.50;;;20.00;99.90;;;;;;5080057;28;20202;-67
2024/04/06 08:20:10;;;;;;;0.60;0.40;;;19.90;99.90;;;;;;5073889;28;20187;-67
2024/04/06 08:22:37;;;;;;;0.90;0.40;;;20.20;99.90;;;;;;5075658;28;20191;-65
2024/04/06 08:25:05;;;;;;;1.20;0.60;;;20.50;99.90;;;;;;5068788;28;20175;-67
2024/04/06 08:27:33;;;;;;;0.30;0.30;;;20.70;99.90;;;;;;5069162;28;20751;-67
2024/04/06 08:29:59;;;;;;;0.40;0.20;;;20.80;99.90;;;;;;5063885;28;20203;-67
2024/04/06 08:32:25;;;;;;;1.17;0.40;;;21.00;99.90;;;;;;5072910;28;20190;-66
2024/04/06 08:34:55;;;;;;;0.57;0.40;;;21.50;99.90;;;;;;5071440;28;20210;-66
2024/04/06 08:37:21;;;;;;;1.10;0.40;;;21.90;99.90;;;;;;5072680;28;20228;-66
2024/04/06 08:39:47;;;;;;;1.37;0.50;;;22.00;99.90;;;;;;5072364;28;20688;-67
2024/04/06 08:42:20;;;;;;;0.93;0.47;;;22.30;99.90;;;;;;5072708;28;20280;-67
2024/04/06 08:44:46;;;;;;;0.73;0.40;;;22.50;99.90;;;;;;5072883;28;20178;-66
2024/04/06 08:47:13;;;;;;;0.50;0.40;;;22.90;99.90;;;;;;5072711;28;20206;-64
2024/04/06 08:49:40;;;;;;;0.53;0.37;;;23.00;99.90;;;;;;5071915;28;20698;-66
2024/04/06 08:52:10;;;;;;;0.83;0.50;;;22.90;99.90;;;;;;5072475;28;20232;-66
2024/04/06 08:54:37;;;;;;;1.17;0.30;;;23.20;99.90;;;;;;5072175;28;20250;-67
2024/04/06 08:57:06;;;;;;;1.23;0.50;;;23.30;99.90;;;;;;5072493;28;20293;-66
2024/04/06 08:59:32;;;;;;;0.50;0.40;;;23.70;99.90;;;;;;5071796;28;20194;-68
2024/04/06 09:01:58;;;;;;;0.87;0.50;;;24.00;99.90;;;;;;5072593;28;20167;-67
2024/04/06 09:04:24;;;;;;;0.70;0.40;;;23.90;99.90;;;;;;5072261;28;20175;-67
2024/04/06 09:06:50;;;;;;;1.30;0.53;;;24.20;99.90;;;;;;5071784;28;20195;-68
2024/04/06 09:09:15;;;;;;;0.73;0.43;;;24.60;99.90;;;;;;5071592;28;20292;-67
2024/04/06 09:11:43;;;;;;;0.77;0.40;;;25.00;99.90;;;;;;5071803;28;20217;-67
2024/04/06 09:14:10;;;;;;;8.40;0.83;;;25.10;99.90;;;;;;5072182;28;20180;-68
2024/04/06 09:16:37;;;;;;;0.27;0.27;;;24.80;99.90;;;;;;5085672;28;20601;-68
2024/04/06 09:19:02;;;;;;;0.50;0.40;;;24.70;99.90;;;;;;5078789;28;20255;-67
2024/04/06 09:21:29;;;;;;;0.50;0.23;;;24.40;99.90;;;;;;5071758;28;20186;-67
2024/04/06 09:23:54;;;;;;;0.40;0.27;;;24.30;99.90;;;;;;5071709;28;20190;-67
2024/04/06 09:26:21;;;;;;;0.73;0.30;;;24.40;99.90;;;;;;5071817;28;20610;-68
2024/04/06 09:28:53;;;;;;;0.90;0.50;;;24.30;99.90;;;;;;5069865;28;20210;-68
2024/04/06 09:31:23;;;;;;;0.63;0.30;;;24.30;99.90;;;;;;5071176;28;20193;-68
2024/04/06 09:33:52;;;;;;;0.67;0.40;;;24.20;99.90;;;;;;5071405;28;20202;-68
2024/04/06 09:36:19;;;;;;;0.30;0.20;;;24.20;99.90;;;;;;5070017;28;20202;-68
2024/04/06 09:38:47;;;;;;;1.13;0.33;;;24.30;99.90;;;;;;5070970;28;20549;-68
2024/04/06 09:41:16;;;;;;;0.70;0.40;;;24.10;99.90;;;;;;5069673;28;20257;-67
2024/04/06 09:43:45;;;;;;;1.80;0.27;;;24.00;99.90;;;;;;5078381;28;20178;-67
2024/04/06 09:46:11;;;;;;;0.60;0.43;;;23.80;99.90;;;;;;5071303;28;20191;-67
2024/04/06 09:48:38;;;;;;;0.60;0.30;;;23.70;99.90;;;;;;5070906;28;20214;-66
2024/04/06 09:51:05;;;;;;;0.30;0.30;;;23.90;99.90;;;;;;5074046;28;20637;-67
2024/04/06 09:53:33;;;;;;;0.30;0.30;;;24.20;99.90;;;;;;5076759;28;20190;-68
2024/04/06 09:56:01;;;;;;;0.30;0.30;;;24.70;99.90;;;;;;5072237;28;20214;-68
2024/04/06 09:58:30;;;;;;;0.83;0.50;;;24.80;99.90;;;;;;5076708;28;20202;-69
2024/04/06 10:00:56;;;;;;;0.40;0.30;;;25.30;99.90;;;;;;5084101;28;20182;-71
2024/04/06 10:03:46;;;;;;;1.53;0.30;;;25.40;99.90;;;;;;5075894;28;20309;-70
2024/04/06 10:06:17;;;;;;;0.40;0.30;;;25.10;99.90;;;;;;5068360;28;20189;-70
2024/04/06 10:08:46;;;;;;;0.40;0.30;;;25.00;99.90;;;;;;5070498;28;20344;-69
2024/04/06 10:11:23;;;;;;;0.37;0.27;;;25.00;99.90;;;;;;5070425;28;20182;-69
2024/04/06 10:13:58;;;;;;;1.33;0.70;;;24.90;99.90;;;;;;5070835;28;20189;-69
2024/04/06 10:16:32;;;;;;;1.17;0.50;;;25.10;99.90;;;;;;5070441;28;20214;-69
2024/04/06 10:19:01;;;;;;;0.47;0.40;;;25.10;99.90;;;;;;5070723;28;20737;-69
2024/04/06 10:21:29;;;;;;;0.40;0.30;;;25.30;99.90;;;;;;5073985;28;20689;-68
2024/04/06 10:23:55;;;;;;;0.70;0.37;;;25.70;99.90;;;;;;5070229;28;20183;-68
2024/04/06 10:26:22;;;;;;;0.50;0.30;;;26.10;99.90;;;;;;5070354;28;20650;-68
2024/04/06 10:28:48;;;;;;;0.60;0.20;;;26.70;99.90;;;;;;5070245;28;20350;-70
2024/04/06 10:31:14;;;;;;;0.47;0.20;;;27.30;99.90;;;;;;5070274;28;20190;-69
2024/04/06 10:33:40;;;;;;;;;;;27.70;99.90;;;;;;5070892;28;20036;-69
2024/04/06 10:36:09;;;;;;;;;;;27.80;99.90;;;;;;5070868;28;19909;-69
2024/04/06 10:38:35;;;;;;;1.55;0.57;;;28.00;99.90;;;;;;5068758;28;20387;-69
2024/04/06 10:41:00;;;;;;;0.77;0.40;;;28.20;99.90;;;;;;5069841;28;20257;-69
2024/04/06 10:43:26;;;;;;;0.53;0.37;;;28.10;99.90;;;;;;5077547;28;20688;-69
2024/04/06 10:45:52;;;;;;;0.60;0.30;;;27.90;99.90;;;;;;5070992;28;20783;-68
2024/04/06 10:48:18;;;;;;;0.50;0.40;;;27.50;99.90;;;;;;5069908;28;20269;-69
2024/04/06 10:50:45;;;;;;;0.60;0.30;;;27.00;99.90;;;;;;5069548;28;20241;-69
2024/04/06 10:53:11;;;;;;;0.40;0.20;;;27.00;99.90;;;;;;5074949;28;20268;-69
2024/04/06 10:55:37;;;;;;;2.20;0.27;;;27.20;99.90;;;;;;5072623;28;20263;-69
2024/04/06 10:58:04;;;;;;;0.30;0.27;;;27.20;99.90;;;;;;5070000;28;20578;-69
2024/04/06 11:00:31;;;;;;;0.40;0.30;;;27.30;99.90;;;;;;5069319;28;20551;-69
2024/04/06 11:03:03;;;;;;;0.43;0.30;;;26.80;99.90;;;;;;5078085;28;20171;-70
2024/04/06 11:05:30;;;;;;;0.40;0.30;;;26.60;99.90;;;;;;5069723;28;20180;-69
2024/04/06 11:07:56;;;;;;;0.20;0.20;;;26.60;99.90;;;;;;5069418;28;20216;-69
2024/04/06 11:10:22;;;;;;;0.73;0.33;;;26.50;99.90;;;;;;5069276;28;20266;-69
2024/04/06 11:12:48;;;;;;;0.40;0.30;;;26.30;99.90;;;;;;5069653;28;20303;-69
2024/04/06 11:15:13;;;;;;;1.23;0.40;;;26.00;99.90;;;;;;5068085;28;20195;-69
2024/04/06 11:17:40;;;;;;;1.17;0.30;;;26.00;99.90;;;;;;5069209;28;20206;-69
2024/04/06 11:20:07;;;;;;;0.70;0.40;;;25.90;99.90;;;;;;5068961;28;20232;-70
2024/04/06 11:22:33;;;;;;;2.30;0.40;;;25.80;99.90;;;;;;5069366;28;20269;-69
2024/04/06 11:24:58;;;;;;;0.77;0.30;;;25.20;99.90;;;;;;5077982;28;20184;-69
2024/04/06 11:27:25;;;;;;;0.53;0.33;;;25.20;99.90;;;;;;5069460;28;20209;-70
2024/04/06 11:29:51;;;;;;;0.40;0.33;;;25.10;99.90;;;;;;5069023;28;20186;-71
2024/04/06 11:32:22;;;;;;;0.63;0.40;;;25.10;99.90;;;;;;5074098;28;20192;-68
2024/04/06 11:34:52;;;;;;;0.30;0.30;;;25.20;99.90;;;;;;5070713;28;20198;-69
2024/04/06 11:37:20;;;;;;;0.80;0.33;;;25.30;99.90;;;;;;5069282;28;20263;-70
2024/04/06 11:39:47;;;;;;;1.23;0.40;;;25.20;99.90;;;;;;5068999;28;20590;-68
2024/04/06 11:42:14;;;;;;;0.40;0.40;;;25.20;99.90;;;;;;5077289;28;20669;-68
2024/04/06 11:44:40;;;;;;;0.20;0.20;;;25.60;99.90;;;;;;5068967;28;20285;-68
2024/04/06 11:47:05;;;;;;;0.73;0.50;;;25.90;99.90;;;;;;5069487;28;20283;-68
2024/04/06 11:49:31;;;;;;;1.93;0.67;;;26.50;99.90;;;;;;5067195;28;20668;-69
2024/04/06 11:51:57;;;;;;;0.30;0.20;;;26.80;99.90;;;;;;5068921;28;20210;-70
2024/04/06 11:54:24;;;;;;;0.97;0.73;;;27.00;99.90;;;;;;5068785;28;20191;-68
2024/04/06 11:56:53;;;;;;;0.43;0.20;;;26.80;99.90;;;;;;5069005;28;20660;-69
2024/04/06 11:59:18;;;;;;;0.57;0.33;;;27.10;99.90;;;;;;5068450;28;20190;-70
2024/04/06 12:01:44;;;;;;;2.00;0.40;;;27.20;99.90;;;;;;5068993;28;20175;-67
2024/04/06 12:04:10;;;;;;;0.27;0.27;;;27.30;99.90;;;;;;5068691;28;20175;-66
2024/04/06 12:06:36;;;;;;;0.40;0.30;;;27.30;99.90;;;;;;5068660;28;20186;-67
2024/04/06 12:09:05;;;;;;;0.40;0.30;;;27.20;99.90;;;;;;5068837;28;20245;-66
2024/04/06 12:11:33;;;;;;;0.20;0.20;;;27.10;99.90;;;;;;5069549;28;20224;-66
2024/04/06 12:14:00;;;;;;;0.30;0.30;;;27.00;99.90;;;;;;5061394;28;20241;-66
2024/04/06 12:16:29;;;;;;;0.50;0.30;;;26.60;99.90;;;;;;5068810;28;20202;-67
2024/04/06 12:18:56;;;;;;;0.40;0.20;;;26.60;99.90;;;;;;5067270;28;20208;-66
2024/04/06 12:21:22;;;;;;;0.23;0.20;;;26.60;99.90;;;;;;5065227;28;20189;-66
2024/04/06 12:23:48;;;;;;;0.43;0.20;;;26.20;99.90;;;;;;5067337;28;20218;-66
2024/04/06 12:26:14;;;;;;;0.23;0.20;;;26.10;99.90;;;;;;5067442;28;20181;-66
2024/04/06 12:28:40;;;;;;;0.30;0.30;;;25.90;99.90;;;;;;5067207;28;20209;-67
2024/04/06 12:31:06;;;;;;;0.57;0.40;;;25.80;99.90;;;;;;5067106;28;20178;-67
2024/04/06 12:33:32;;;;;;;0.53;0.30;;;26.00;99.90;;;;;;5068901;28;20190;-66
2024/04/06 12:35:58;;;;;;;0.37;0.30;;;26.20;99.90;;;;;;5077194;28;20237;-67
2024/04/06 12:38:24;;;;;;;0.50;0.30;;;26.30;99.90;;;;;;5075654;28;20235;-67
2024/04/06 12:40:49;;;;;;;0.27;0.20;;;26.60;99.90;;;;;;5069889;28;20194;-67
2024/04/06 12:43:15;;;;;;;0.77;0.30;;;27.00;99.90;;;;;;5069344;28;20666;-67